createdAt,value
2023-05-04T00:03:09.434Z,1019.93
2023-05-04T00:08:16.590Z,1019.88
2023-05-04T00:13:23.810Z,1019.83
2023-05-04T00:18:31.081Z,1019.89
2023-05-04T00:23:38.360Z,1019.92
2023-05-04T00:28:45.557Z,1019.88
2023-05-04T00:33:52.837Z,1019.86
2023-05-04T00:39:00.137Z,1019.82
2023-05-04T00:44:07.311Z,1019.79
2023-05-04T00:49:14.471Z,1019.74
2023-05-04T00:54:21.685Z,1019.76
2023-05-04T00:59:28.851Z,1019.71
2023-05-04T01:04:36.052Z,1019.71
2023-05-04T01:09:43.292Z,1019.74
2023-05-04T01:14:50.520Z,1019.69
2023-05-04T01:19:57.693Z,1019.79
2023-05-04T01:25:04.866Z,1019.85
2023-05-04T01:30:12.166Z,1019.83
2023-05-04T01:35:19.236Z,1019.83
2023-05-04T01:40:26.416Z,1019.88
2023-05-04T01:45:33.650Z,1019.87
2023-05-04T01:50:40.915Z,1019.83
2023-05-04T01:55:48.175Z,1019.83
2023-05-04T02:00:55.401Z,1019.79
2023-05-04T02:06:02.541Z,1019.90
2023-05-04T02:11:09.826Z,1019.93
2023-05-04T02:16:17.263Z,1019.89
2023-05-04T02:21:24.425Z,1019.96
2023-05-04T02:26:31.703Z,1019.98
2023-05-04T02:31:38.941Z,1019.96
2023-05-04T02:36:46.079Z,1019.97
2023-05-04T02:41:53.346Z,1019.90
2023-05-04T02:47:00.744Z,1019.96
2023-05-04T02:52:11.304Z,1019.94
2023-05-04T02:57:18.649Z,1019.89
2023-05-04T03:02:26.124Z,1019.81
2023-05-04T03:07:33.284Z,1019.85
2023-05-04T03:12:40.658Z,1019.89
2023-05-04T03:17:47.990Z,1019.87
2023-05-04T03:22:55.281Z,1019.90
2023-05-04T03:28:02.787Z,1019.94
2023-05-04T03:33:10.254Z,1019.90
2023-05-04T03:38:17.451Z,1019.91
2023-05-04T03:43:25.550Z,1019.84
2023-05-04T03:48:33.159Z,1019.83
2023-05-04T03:53:41.346Z,1019.80
2023-05-04T03:58:47.955Z,1019.82
2023-05-04T04:03:55.537Z,1019.80
2023-05-04T04:09:02.593Z,1019.78
2023-05-04T04:14:10.148Z,1019.80
2023-05-04T04:19:18.024Z,1019.86
2023-05-04T04:24:25.268Z,1019.94
2023-05-04T04:29:39.226Z,1019.92
2023-05-04T04:34:54.178Z,1019.91
2023-05-04T04:39:59.539Z,1019.95
2023-05-04T04:45:11.655Z,1019.93
2023-05-04T04:50:20.020Z,1019.95
2023-05-04T04:55:27.368Z,1019.97
2023-05-04T05:00:34.797Z,1020.02
2023-05-04T05:05:48.406Z,1020.01
2023-05-04T05:10:55.697Z,1020.03
2023-05-04T05:16:03.103Z,1020.11
2023-05-04T05:21:10.457Z,1020.08
2023-05-04T05:26:18.366Z,1020.06
2023-05-04T05:31:25.895Z,1020.06
2023-05-04T05:36:33.272Z,1020.08
2023-05-04T05:41:40.796Z,1020.07
2023-05-04T05:46:48.148Z,1020.05
2023-05-04T05:51:55.541Z,1020.02
2023-05-04T05:57:02.968Z,1020.02
2023-05-04T06:02:10.244Z,1019.97
2023-05-04T06:07:17.538Z,1019.97
2023-05-04T06:12:24.821Z,1019.97
2023-05-04T06:17:32.133Z,1019.94
2023-05-04T06:22:39.371Z,1019.88
2023-05-04T06:27:46.673Z,1019.86
2023-05-04T06:32:54.366Z,1019.81
2023-05-04T06:38:02.292Z,1019.80
2023-05-04T06:43:09.017Z,1019.77
2023-05-04T06:48:16.296Z,1019.79
2023-05-04T06:53:23.581Z,1019.77
2023-05-04T06:58:30.927Z,1019.80
2023-05-04T07:03:38.326Z,1019.82
2023-05-04T07:08:45.539Z,1019.81
2023-05-04T07:13:52.733Z,1019.81
2023-05-04T07:18:59.980Z,1019.82
2023-05-04T07:24:07.291Z,1019.79
2023-05-04T07:29:14.455Z,1019.75
2023-05-04T07:34:27.411Z,1019.78
2023-05-04T07:39:28.993Z,1019.70
2023-05-04T07:44:35.975Z,1019.69
2023-05-04T07:49:47.224Z,1019.65
2023-05-04T07:54:57.239Z,1019.65
2023-05-04T08:00:04.622Z,1019.64
2023-05-04T08:05:11.653Z,1019.58
2023-05-04T08:10:18.937Z,1019.56
2023-05-04T08:15:26.104Z,1019.57
2023-05-04T08:20:33.309Z,1019.53
2023-05-04T08:25:40.602Z,1019.45
2023-05-04T08:30:47.665Z,1019.45
2023-05-04T08:35:54.857Z,1019.52
2023-05-04T08:41:02.337Z,1019.57
2023-05-04T08:46:09.484Z,1019.51
2023-05-04T08:51:16.628Z,1019.57
2023-05-04T08:56:23.827Z,1019.49
2023-05-04T09:01:31.116Z,1019.42
2023-05-04T09:06:38.168Z,1019.39
2023-05-04T09:11:45.377Z,1019.33
2023-05-04T09:16:52.576Z,1019.35
2023-05-04T09:21:59.704Z,1019.35
2023-05-04T09:27:06.903Z,1019.24
2023-05-04T09:32:14.093Z,1019.25
2023-05-04T09:37:21.289Z,1019.19
2023-05-04T09:42:28.485Z,1019.14
2023-05-04T09:47:35.731Z,1019.13
2023-05-04T09:52:42.894Z,1019.12
2023-05-04T09:57:50.223Z,1019.09
2023-05-04T10:02:57.317Z,1019.13
2023-05-04T10:08:04.514Z,1019.07
2023-05-04T10:13:12.042Z,1019.03
2023-05-04T10:18:18.941Z,1019.02
2023-05-04T10:23:26.143Z,1018.95
2023-05-04T10:28:33.399Z,1018.91
2023-05-04T10:33:40.558Z,1018.91
2023-05-04T10:38:47.813Z,1018.96
2023-05-04T10:43:55.106Z,1018.90
2023-05-04T10:49:02.276Z,1018.91
2023-05-04T10:54:09.466Z,1018.82
2023-05-04T10:59:16.706Z,1018.74
2023-05-04T11:04:25.449Z,1018.70
2023-05-04T11:09:32.636Z,1018.65
2023-05-04T11:14:40.962Z,1018.59
2023-05-04T11:19:48.281Z,1018.49
2023-05-04T11:25:33.859Z,1018.54
2023-05-04T11:31:21.187Z,1018.46
2023-05-04T11:37:18.775Z,1018.42
2023-05-04T11:43:01.624Z,1018.39
2023-05-04T11:50:37.907Z,1018.31
2023-05-04T11:54:05.013Z,1018.29
2023-05-04T11:59:53.810Z,1018.32
2023-05-04T12:05:31.232Z,1018.26
2023-05-04T12:10:20.478Z,1018.16
2023-05-04T12:16:02.994Z,1018.19
2023-05-04T12:21:45.569Z,1018.18
2023-05-04T12:29:44.787Z,1018.19
2023-05-04T12:35:29.519Z,1017.98
2023-05-04T12:41:18.247Z,1017.99
2023-05-04T12:46:31.865Z,1017.92
2023-05-04T12:52:29.550Z,1017.88
2023-05-04T12:58:17.680Z,1017.88
2023-05-04T13:04:00.228Z,1017.82
2023-05-04T13:09:22.884Z,1017.81
2023-05-04T13:15:20.718Z,1017.80
2023-05-04T13:23:05.619Z,1017.73
2023-05-04T13:26:37.008Z,1017.68
2023-05-04T13:32:03.323Z,1017.58
2023-05-04T13:38:04.132Z,1017.47
2023-05-04T13:43:46.552Z,1017.30
2023-05-04T13:49:15.039Z,1017.26
2023-05-04T13:54:55.344Z,1017.23
2023-05-04T14:00:37.755Z,1017.12
2023-05-04T14:06:20.816Z,1017.13
2023-05-04T14:11:39.576Z,1017.07
2023-05-04T14:17:08.534Z,1017.04
2023-05-04T14:22:03.490Z,1016.96
2023-05-04T14:27:28.657Z,1016.85
2023-05-04T14:32:24.006Z,1016.90
2023-05-04T14:37:39.498Z,1016.83
2023-05-04T14:42:59.994Z,1016.77
2023-05-04T14:48:13.330Z,1016.70
2023-05-04T14:53:20.931Z,1016.58
2023-05-04T14:58:33.423Z,1016.55
2023-05-04T15:05:24.845Z,1016.47
2023-05-04T15:09:18.370Z,1016.46
2023-05-04T15:14:37.982Z,1016.43
2023-05-04T15:20:21.126Z,1016.39
2023-05-04T15:26:06.987Z,1016.23
2023-05-04T15:31:17.963Z,1016.24
2023-05-04T15:36:49.108Z,1016.26
2023-05-04T15:42:05.905Z,1016.20
2023-05-04T15:47:00.411Z,1016.14
2023-05-04T15:52:12.749Z,1016.12
2023-05-04T15:58:17.066Z,1016.12
2023-05-04T16:04:09.404Z,1016.06
2023-05-04T16:08:32.047Z,1016.08
2023-05-04T16:13:44.264Z,1016.05
2023-05-04T16:19:07.892Z,1016.05
2023-05-04T16:24:25.515Z,1016.02
2023-05-04T16:29:30.456Z,1016.06
2023-05-04T16:34:37.853Z,1016.11
2023-05-04T16:39:45.271Z,1016.11
2023-05-04T16:44:52.957Z,1016.10
2023-05-04T16:50:11.275Z,1016.12
2023-05-04T16:55:40.781Z,1016.12
2023-05-04T17:01:25.876Z,1016.18
2023-05-04T17:07:13.156Z,1016.18
2023-05-04T17:12:26.459Z,1016.24
2023-05-04T17:18:09.655Z,1016.26
2023-05-04T17:27:36.807Z,1016.25
2023-05-04T17:34:32.706Z,1016.23
2023-05-04T17:41:00.190Z,1016.27
2023-05-04T17:44:51.181Z,1016.32
2023-05-04T17:50:03.481Z,1016.30
2023-05-04T17:55:10.689Z,1016.39
2023-05-04T18:00:17.895Z,1016.47
2023-05-04T18:05:25.119Z,1016.55
2023-05-04T18:10:32.370Z,1016.57
2023-05-04T18:15:39.528Z,1016.66
2023-05-04T18:20:46.743Z,1016.73
2023-05-04T18:25:53.914Z,1016.76
2023-05-04T18:31:01.146Z,1016.78
2023-05-04T18:36:08.454Z,1016.87
2023-05-04T18:41:16.062Z,1016.92
2023-05-04T18:46:23.575Z,1016.96
2023-05-04T18:51:30.795Z,1017.03
2023-05-04T18:56:38.090Z,1017.09
2023-05-04T19:01:45.634Z,1017.18
2023-05-04T19:06:53.011Z,1017.22
2023-05-04T19:12:00.180Z,1017.27
2023-05-04T19:17:07.365Z,1017.29
2023-05-04T19:22:14.671Z,1017.31
2023-05-04T19:27:21.942Z,1017.37
2023-05-04T19:32:29.236Z,1017.37
2023-05-04T19:37:36.612Z,1017.32
2023-05-04T19:42:43.798Z,1017.40
2023-05-04T19:47:51.099Z,1017.56
2023-05-04T19:52:58.437Z,1017.56
2023-05-04T19:58:05.666Z,1017.50
2023-05-04T20:03:13.341Z,1017.56
2023-05-04T20:08:20.466Z,1017.63
2023-05-04T20:13:27.698Z,1017.71
2023-05-04T20:18:34.996Z,1017.82
2023-05-04T20:23:42.306Z,1017.86
2023-05-04T20:28:49.557Z,1017.90
2023-05-04T20:33:56.920Z,1017.86
2023-05-04T20:39:04.166Z,1017.84
2023-05-04T20:44:11.443Z,1017.79
2023-05-04T20:49:18.815Z,1017.75
2023-05-04T20:54:26.095Z,1017.81
2023-05-04T20:59:33.369Z,1017.86
2023-05-04T21:04:40.678Z,1017.83
2023-05-04T21:09:48.018Z,1017.78
2023-05-04T21:14:55.231Z,1017.78
2023-05-04T21:20:02.552Z,1017.83
2023-05-04T21:25:09.760Z,1017.83
2023-05-04T21:30:17.219Z,1017.78
2023-05-04T21:35:24.491Z,1017.82
2023-05-04T21:40:31.793Z,1017.86
2023-05-04T21:45:39.020Z,1017.82
2023-05-04T21:50:46.476Z,1017.80
2023-05-04T21:55:53.763Z,1017.79
2023-05-04T22:01:01.161Z,1017.83
2023-05-04T22:06:08.428Z,1017.87
2023-05-04T22:11:15.733Z,1017.84
2023-05-04T22:16:58.259Z,1017.99
2023-05-04T22:27:49.183Z,1018.00
2023-05-04T22:33:22.830Z,1018.01
2023-05-04T22:34:17.498Z,1018.03
2023-05-04T22:38:30.553Z,1017.97
2023-05-04T22:49:02.326Z,1018.06
2023-05-04T22:54:47.598Z,1018.12
2023-05-04T23:00:22.028Z,1018.15
2023-05-04T23:06:05.537Z,1018.14
2023-05-04T23:12:02.420Z,1018.25
2023-05-04T23:17:10.139Z,1018.21
2023-05-04T23:28:38.036Z,1018.27
2023-05-04T23:34:29.365Z,1018.31
2023-05-04T23:41:13.872Z,1018.36
2023-05-04T23:52:03.398Z,1018.32
2023-05-04T23:56:04.359Z,1018.39
